Time;durP1;ratioP1;P1;durP2;ratioP2;P2;SDS_P1;SDS_P2;PMS_P1;PMS_P2;Temp;Humidity;BMP_temperature;BMP_pressure;BME280_temperature;BME280_humidity;BME280_pressure;Samples;Min_cycle;Max_cycle;Signal;HPM_P1;HPM_P2
2021/12/10 00:00:46;;;;;;;5.23;4.63;;;5.90;99.90;;;;;;5016558;28;20462;-74
2021/12/10 00:03:17;;;;;;;6.10;5.50;;;5.90;99.90;;;;;;5015855;28;20487;-74
2021/12/10 00:05:51;;;;;;;6.40;5.30;;;5.90;99.90;;;;;;5016387;28;20435;-74
2021/12/10 00:08:20;;;;;;;5.90;5.30;;;5.90;99.90;;;;;;5016433;28;20435;-74
2021/12/10 00:10:50;;;;;;;5.67;4.87;;;5.90;99.90;;;;;;5016231;28;20455;-74
2021/12/10 00:13:18;;;;;;;8.60;5.13;;;5.90;99.90;;;;;;5016351;28;20428;-73
2021/12/10 00:15:45;;;;;;;4.70;4.30;;;5.90;99.90;;;;;;5016160;28;20543;-74
2021/12/10 00:18:18;;;;;;;5.90;3.80;;;5.90;99.90;;;;;;5015869;28;20945;-73
2021/12/10 00:20:49;;;;;;;5.70;4.33;;;5.90;99.90;;;;;;5016156;28;20527;-73
2021/12/10 00:23:20;;;;;;;4.60;4.20;;;5.90;99.90;;;;;;5016002;28;20467;-73
2021/12/10 00:25:49;;;;;;;7.80;4.13;;;5.90;99.80;;;;;;5016045;28;20499;-73
2021/12/10 00:28:21;;;;;;;9.20;4.47;;;5.90;99.70;;;;;;5016002;28;20464;-73
2021/12/10 00:31:05;;;;;;;7.83;4.60;;;5.90;99.40;;;;;;5015672;28;21016;-73
2021/12/10 00:33:41;;;;;;;5.07;3.97;;;5.90;99.40;;;;;;5015857;28;20478;-73
2021/12/10 00:36:09;;;;;;;8.00;4.17;;;5.90;99.40;;;;;;5015843;28;20439;-73
2021/12/10 00:38:36;;;;;;;5.80;4.43;;;5.90;99.40;;;;;;5015687;28;20453;-73
2021/12/10 00:41:05;;;;;;;8.80;5.00;;;5.90;99.50;;;;;;5015735;28;20474;-73
2021/12/10 00:43:32;;;;;;;7.97;4.37;;;5.90;99.40;;;;;;5015533;28;20827;-73
2021/12/10 00:45:59;;;;;;;5.13;4.00;;;5.90;99.30;;;;;;5015334;28;20938;-73
2021/12/10 00:48:26;;;;;;;8.30;5.20;;;5.90;99.10;;;;;;5015553;28;20440;-73
2021/12/10 00:50:56;;;;;;;5.17;4.10;;;5.90;99.00;;;;;;5015417;28;20474;-73
2021/12/10 00:53:24;;;;;;;7.27;3.80;;;5.80;99.00;;;;;;5015413;28;20463;-73
2021/12/10 00:55:53;;;;;;;9.23;4.30;;;5.80;98.90;;;;;;5015098;28;20846;-73
2021/12/10 00:58:19;;;;;;;7.30;4.43;;;5.80;98.90;;;;;;5015159;28;20447;-73
2021/12/10 01:00:50;;;;;;;5.53;2.90;;;5.80;99.00;;;;;;5015431;28;20818;-73
2021/12/10 01:03:26;;;;;;;11.97;4.07;;;5.80;98.70;;;;;;5014821;28;20490;-73
2021/12/10 01:06:00;;;;;;;6.93;3.50;;;5.70;98.60;;;;;;5015239;28;20431;-73
2021/12/10 01:08:30;;;;;;;6.73;3.63;;;5.70;98.50;;;;;;5014503;28;20435;-73
2021/12/10 01:11:03;;;;;;;5.63;3.30;;;5.70;98.30;;;;;;5015122;28;20454;-73
2021/12/10 01:13:35;;;;;;;5.20;3.77;;;5.70;98.50;;;;;;5015139;28;20462;-73
2021/12/10 01:16:19;;;;;;;4.20;3.00;;;5.70;98.40;;;;;;5014884;28;20806;-73
2021/12/10 01:24:35;;;;;;;6.20;3.53;;;5.60;98.20;;;;;;5015015;28;20560;-73
2021/12/10 01:27:11;;;;;;;4.70;3.80;;;5.60;98.30;;;;;;5014956;28;20431;-73
2021/12/10 01:29:42;;;;;;;6.00;4.03;;;5.50;98.60;;;;;;5014926;28;20435;-73
2021/12/10 01:32:12;;;;;;;6.73;3.57;;;5.50;98.30;;;;;;5014775;28;20487;-73
2021/12/10 01:34:39;;;;;;;10.93;4.60;;;5.50;98.20;;;;;;5014478;28;20827;-73
2021/12/10 01:37:06;;;;;;;9.30;3.43;;;5.40;98.60;;;;;;5014428;28;20960;-73
2021/12/10 01:39:39;;;;;;;5.80;3.77;;;5.40;98.30;;;;;;5014597;28;20497;-73
2021/12/10 01:42:18;;;;;;;6.73;3.57;;;5.40;98.30;;;;;;5014682;28;20530;-73
2021/12/10 01:44:51;;;;;;;5.43;3.30;;;5.40;98.00;;;;;;5014583;28;20497;-73
2021/12/10 01:47:21;;;;;;;3.50;3.07;;;5.40;98.10;;;;;;5014279;28;20447;-73
2021/12/10 01:49:49;;;;;;;5.73;3.97;;;5.30;98.10;;;;;;5014467;28;20439;-73
2021/12/10 01:52:17;;;;;;;8.30;3.70;;;5.30;98.20;;;;;;5014269;28;20454;-73
2021/12/10 01:54:49;;;;;;;7.93;4.03;;;5.30;98.40;;;;;;5013987;28;20864;-73
2021/12/10 01:57:17;;;;;;;4.37;3.60;;;5.30;98.60;;;;;;5014420;28;20446;-73
2021/12/10 01:59:46;;;;;;;4.93;3.90;;;5.30;98.50;;;;;;5014437;28;20505;-73
2021/12/10 02:02:15;;;;;;;5.83;3.40;;;5.40;98.60;;;;;;5014845;28;20910;-73
2021/12/10 02:04:44;;;;;;;6.43;3.10;;;5.40;98.20;;;;;;5014108;28;20491;-73
2021/12/10 02:07:14;;;;;;;5.27;3.13;;;5.40;98.00;;;;;;5013955;28;20964;-73
2021/12/10 02:09:41;;;;;;;6.00;3.50;;;5.40;97.70;;;;;;5014260;28;20439;-73
2021/12/10 02:12:10;;;;;;;10.83;2.70;;;5.40;97.80;;;;;;5013977;28;20428;-73
2021/12/10 02:14:36;;;;;;;6.20;3.30;;;5.40;97.90;;;;;;5014040;28;20526;-73
2021/12/10 02:17:05;;;;;;;4.00;2.53;;;5.40;98.00;;;;;;5013981;28;20544;-73
2021/12/10 02:19:32;;;;;;;3.57;2.30;;;5.40;98.00;;;;;;5013520;28;20930;-73
2021/12/10 02:22:00;;;;;;;3.77;2.70;;;5.40;98.00;;;;;;5013705;28;20857;-73
2021/12/10 02:24:27;;;;;;;10.20;2.43;;;5.50;97.90;;;;;;5013806;28;20487;-73
2021/12/10 02:26:56;;;;;;;3.37;2.23;;;5.50;97.30;;;;;;5013929;28;20815;-73
2021/12/10 02:29:25;;;;;;;5.50;2.50;;;5.50;97.50;;;;;;5013954;28;20454;-73
2021/12/10 02:31:53;;;;;;;7.30;3.13;;;5.50;97.50;;;;;;5013780;28;20971;-73
2021/12/10 02:34:20;;;;;;;7.93;2.23;;;5.50;97.40;;;;;;5013600;28;20471;-73
2021/12/10 02:36:47;;;;;;;3.80;2.93;;;5.60;97.40;;;;;;5013666;28;20803;-73
2021/12/10 02:39:19;;;;;;;6.00;2.30;;;5.60;97.30;;;;;;5013868;28;20455;-73
2021/12/10 02:41:47;;;;;;;4.90;2.20;;;5.60;97.40;;;;;;5013836;28;20447;-73
2021/12/10 02:44:17;;;;;;;5.83;2.33;;;5.60;97.30;;;;;;5014001;28;20494;-73
2021/12/10 02:46:44;;;;;;;6.73;2.57;;;5.60;97.40;;;;;;5016973;28;20644;-74
2021/12/10 02:49:13;;;;;;;8.30;2.57;;;5.60;97.30;;;;;;5023487;28;20456;-71
2021/12/10 02:51:41;;;;;;;4.17;2.37;;;5.60;97.20;;;;;;5016541;28;20459;-70
2021/12/10 02:54:14;;;;;;;5.10;2.80;;;5.70;97.60;;;;;;5013250;28;20455;-71
2021/12/10 02:56:42;;;;;;;6.97;3.23;;;5.60;97.10;;;;;;5016117;28;20443;-71
2021/12/10 02:59:09;;;;;;;8.10;2.57;;;5.60;97.10;;;;;;5014204;28;20497;-70
2021/12/10 03:01:40;;;;;;;6.80;2.50;;;5.70;97.10;;;;;;5013764;28;20455;-70
2021/12/10 03:04:08;;;;;;;9.03;2.57;;;5.60;97.00;;;;;;5013351;28;20488;-70
2021/12/10 03:06:37;;;;;;;5.50;2.60;;;5.70;97.00;;;;;;5013793;28;20458;-70
2021/12/10 03:09:06;;;;;;;8.47;3.27;;;5.60;96.90;;;;;;5013519;28;20451;-70
2021/12/10 03:11:35;;;;;;;4.33;2.23;;;5.60;96.90;;;;;;5013421;28;20448;-70
2021/12/10 03:14:09;;;;;;;5.83;3.07;;;5.70;97.00;;;;;;5013432;28;20467;-70
2021/12/10 03:16:38;;;;;;;7.23;3.03;;;5.60;96.90;;;;;;5013492;28;20486;-70
2021/12/10 03:19:05;;;;;;;8.97;3.10;;;5.60;96.80;;;;;;5013429;28;20451;-70
2021/12/10 03:21:33;;;;;;;4.10;2.73;;;5.60;96.70;;;;;;5013407;28;20447;-70
2021/12/10 03:24:00;;;;;;;5.53;2.63;;;5.60;97.10;;;;;;5013216;28;20490;-71
2021/12/10 03:26:27;;;;;;;9.77;3.27;;;5.60;96.90;;;;;;5013406;28;20454;-70
2021/12/10 03:28:54;;;;;;;10.03;2.73;;;5.60;96.90;;;;;;5013321;28;20454;-70
2021/12/10 03:31:25;;;;;;;5.17;3.13;;;5.60;96.80;;;;;;5013268;28;20458;-70
2021/12/10 03:33:54;;;;;;;8.93;3.10;;;5.60;96.90;;;;;;5016961;28;20463;-70
2021/12/10 03:36:21;;;;;;;8.87;3.40;;;5.60;97.00;;;;;;5017012;28;20458;-70
2021/12/10 03:38:50;;;;;;;6.63;2.10;;;5.60;97.10;;;;;;5016931;28;20478;-70
2021/12/10 03:41:18;;;;;;;4.53;2.90;;;5.60;97.00;;;;;;5016854;28;20447;-70
2021/12/10 03:43:46;;;;;;;3.80;2.67;;;5.60;96.90;;;;;;5016649;28;20491;-71
2021/12/10 03:46:14;;;;;;;8.70;2.67;;;5.60;96.90;;;;;;5018274;28;20453;-70
2021/12/10 03:48:45;;;;;;;8.60;3.50;;;5.60;96.80;;;;;;5016768;28;20510;-70
2021/12/10 03:51:15;;;;;;;8.90;2.30;;;5.60;96.50;;;;;;5016435;28;20526;-70
2021/12/10 03:53:41;;;;;;;10.20;2.97;;;5.60;96.60;;;;;;5016569;28;20459;-70
2021/12/10 03:56:11;;;;;;;7.77;3.07;;;5.60;96.80;;;;;;5016803;28;20474;-70
2021/12/10 03:58:38;;;;;;;6.30;2.73;;;5.60;96.80;;;;;;5016462;28;20453;-70
2021/12/10 04:01:07;;;;;;;8.73;3.07;;;5.60;96.90;;;;;;5016512;28;20826;-70
2021/12/10 04:03:35;;;;;;;8.13;2.10;;;5.70;96.40;;;;;;5015820;28;20499;-70
2021/12/10 04:06:03;;;;;;;6.43;2.70;;;5.70;96.30;;;;;;5016356;28;20482;-71
2021/12/10 04:08:31;;;;;;;3.93;2.23;;;5.70;96.60;;;;;;5016359;28;20447;-71
2021/12/10 04:10:59;;;;;;;6.03;2.00;;;5.70;96.40;;;;;;5016375;28;20455;-71
2021/12/10 04:13:26;;;;;;;7.33;2.37;;;5.60;96.50;;;;;;5016105;28;20466;-71
2021/12/10 04:15:53;;;;;;;7.23;2.67;;;5.60;96.70;;;;;;5016150;28;20447;-70
2021/12/10 04:18:20;;;;;;;7.93;2.40;;;5.60;96.80;;;;;;5016150;28;20447;-70
2021/12/10 04:20:48;;;;;;;8.13;2.20;;;5.60;96.80;;;;;;5016120;28;20454;-70
2021/12/10 04:23:18;;;;;;;7.00;2.83;;;5.60;96.80;;;;;;5015923;28;20443;-71
2021/12/10 04:25:46;;;;;;;4.47;2.77;;;5.60;96.80;;;;;;5016000;28;20439;-70
2021/12/10 04:28:15;;;;;;;8.37;2.50;;;5.60;96.80;;;;;;5016137;28;20443;-70
2021/12/10 04:30:45;;;;;;;7.13;2.60;;;5.60;96.90;;;;;;5015886;28;20527;-70
2021/12/10 04:33:15;;;;;;;6.33;2.70;;;5.60;96.90;;;;;;5015966;28;20791;-71
2021/12/10 04:35:43;;;;;;;17.17;2.93;;;5.60;96.90;;;;;;5015812;28;20436;-71
2021/12/10 04:38:10;;;;;;;4.10;2.30;;;5.60;96.80;;;;;;5015741;28;20530;-70
2021/12/10 04:40:39;;;;;;;7.73;1.90;;;5.60;96.90;;;;;;5015185;28;20941;-70
2021/12/10 04:43:06;;;;;;;7.20;2.20;;;5.60;96.80;;;;;;5014957;28;20454;-71
2021/12/10 04:45:32;;;;;;;8.07;2.20;;;5.60;96.80;;;;;;5015375;28;20490;-70
2021/12/10 04:47:59;;;;;;;5.50;1.83;;;5.60;96.80;;;;;;5015179;28;20902;-71
2021/12/10 04:50:27;;;;;;;6.63;2.50;;;5.60;96.80;;;;;;5015324;28;20447;-70
2021/12/10 04:52:55;;;;;;;4.30;2.40;;;5.60;96.90;;;;;;5015060;28;20821;-70
2021/12/10 04:55:22;;;;;;;3.63;1.90;;;5.60;96.80;;;;;;5015397;28;20463;-71
2021/12/10 04:57:50;;;;;;;4.30;2.60;;;5.50;96.90;;;;;;5015414;28;20482;-70
2021/12/10 05:00:22;;;;;;;4.23;1.77;;;5.60;97.00;;;;;;5015363;28;20498;-70
2021/12/10 05:02:48;;;;;;;5.03;2.60;;;5.50;97.00;;;;;;5015148;28;20486;-70
2021/12/10 05:05:15;;;;;;;2.93;1.43;;;5.50;97.10;;;;;;5016176;28;20483;-70
2021/12/10 05:07:43;;;;;;;6.17;2.00;;;5.50;97.00;;;;;;5017690;28;20494;-70
2021/12/10 05:10:12;;;;;;;8.20;2.83;;;5.50;97.10;;;;;;5015167;28;20447;-70
2021/12/10 05:12:41;;;;;;;7.93;2.90;;;5.50;97.30;;;;;;5014981;28;20941;-70
2021/12/10 05:15:13;;;;;;;5.97;2.27;;;5.50;97.30;;;;;;5015104;28;20466;-71
2021/12/10 05:17:40;;;;;;;10.80;2.73;;;5.50;97.40;;;;;;5015340;28;20436;-70
2021/12/10 05:20:15;;;;;;;8.43;3.33;;;5.40;97.30;;;;;;5014680;28;20982;-70
2021/12/10 05:22:44;;;;;;;4.37;2.40;;;5.50;97.30;;;;;;5015006;28;20431;-70
2021/12/10 05:25:11;;;;;;;9.53;3.00;;;5.50;97.40;;;;;;5014541;28;20953;-71
2021/12/10 05:27:38;;;;;;;5.00;2.00;;;5.50;97.20;;;;;;5014814;28;20937;-70
2021/12/10 05:30:07;;;;;;;5.97;1.80;;;5.50;97.20;;;;;;5014704;28;20444;-70
2021/12/10 05:32:35;;;;;;;7.40;2.63;;;5.50;97.30;;;;;;5014995;28;20451;-70
2021/12/10 05:35:03;;;;;;;5.90;2.40;;;5.50;97.30;;;;;;5017380;28;20455;-70
2021/12/10 05:37:29;;;;;;;6.67;3.33;;;5.50;97.30;;;;;;5016915;28;20571;-69
2021/12/10 05:40:12;;;;;;;6.07;2.57;;;5.50;97.20;;;;;;5026836;28;20478;-71
2021/12/10 05:43:08;;;;;;;5.37;3.57;;;5.50;97.20;;;;;;5033888;28;20440;-70
2021/12/10 05:45:36;;;;;;;9.23;3.20;;;5.50;97.10;;;;;;5019099;28;20478;-70
2021/12/10 05:48:05;;;;;;;5.03;2.60;;;5.50;97.10;;;;;;5017261;28;20482;-70
2021/12/10 05:53:34;;;;;;;11.63;3.10;;;5.50;97.00;;;;;;5016630;28;20463;-73
2021/12/10 05:56:01;;;;;;;6.50;3.70;;;5.40;96.90;;;;;;5013634;28;20932;-73
2021/12/10 05:58:28;;;;;;;6.97;3.40;;;5.40;97.00;;;;;;5017862;28;20432;-73
2021/12/10 06:00:59;;;;;;;6.80;3.63;;;5.40;97.00;;;;;;5016864;28;20505;-73
2021/12/10 06:03:34;;;;;;;5.20;3.07;;;5.40;97.10;;;;;;5016265;28;20471;-73
2021/12/10 06:06:03;;;;;;;13.50;4.27;;;5.40;97.20;;;;;;5014891;28;20479;-73
2021/12/10 06:08:30;;;;;;;8.73;4.00;;;5.40;97.20;;;;;;5014154;28;20451;-73
2021/12/10 06:10:59;;;;;;;7.17;4.37;;;5.40;97.20;;;;;;5014881;28;20443;-73
2021/12/10 06:13:26;;;;;;;9.63;4.47;;;5.30;97.10;;;;;;5013937;28;20581;-73
2021/12/10 06:15:54;;;;;;;15.10;4.60;;;5.40;97.10;;;;;;5014033;28;20447;-73
2021/12/10 06:18:20;;;;;;;12.57;4.43;;;5.40;97.10;;;;;;5013969;28;20452;-73
2021/12/10 06:20:51;;;;;;;7.03;4.30;;;5.30;97.10;;;;;;5014725;28;20458;-73
2021/12/10 06:23:19;;;;;;;8.20;4.17;;;5.40;97.00;;;;;;5014029;28;20427;-73
2021/12/10 06:25:46;;;;;;;8.23;4.60;;;5.30;97.00;;;;;;5013821;28;20533;-73
2021/12/10 06:28:13;;;;;;;7.10;4.00;;;5.30;97.00;;;;;;5014150;28;20442;-73
2021/12/10 06:30:42;;;;;;;13.70;4.03;;;5.20;97.10;;;;;;5013785;28;20447;-73
2021/12/10 06:33:11;;;;;;;10.57;4.43;;;5.20;97.10;;;;;;5013781;28;20447;-73
2021/12/10 06:35:40;;;;;;;6.67;4.50;;;5.30;97.30;;;;;;5013830;28;20497;-73
2021/12/10 06:38:09;;;;;;;7.03;4.23;;;5.30;97.10;;;;;;5013741;28;20451;-73
2021/12/10 06:40:39;;;;;;;11.00;4.70;;;5.20;97.10;;;;;;5013681;28;20486;-73
2021/12/10 06:43:06;;;;;;;8.47;4.30;;;5.30;97.10;;;;;;5013612;28;20487;-73
2021/12/10 06:45:34;;;;;;;12.27;4.93;;;5.30;97.10;;;;;;5013527;28;20482;-73
2021/12/10 06:48:07;;;;;;;7.43;4.40;;;5.30;97.10;;;;;;5014312;28;20459;-73
2021/12/10 06:50:36;;;;;;;9.63;4.90;;;5.30;97.10;;;;;;5013626;28;20443;-73
2021/12/10 06:53:03;;;;;;;6.23;3.90;;;5.20;97.20;;;;;;5013564;28;20450;-73
2021/12/10 06:55:33;;;;;;;9.20;4.47;;;5.20;97.20;;;;;;5013057;28;20822;-73
2021/12/10 06:58:00;;;;;;;10.20;4.60;;;5.30;97.30;;;;;;5013429;28;20447;-73
2021/12/10 07:00:30;;;;;;;8.57;3.97;;;5.20;97.20;;;;;;5013806;28;20454;-73
2021/12/10 07:02:56;;;;;;;13.93;4.93;;;5.20;97.30;;;;;;5013194;28;20467;-73
2021/12/10 07:05:23;;;;;;;8.50;4.50;;;5.30;97.30;;;;;;5013334;28;20483;-73
2021/12/10 07:07:50;;;;;;;10.00;4.00;;;5.30;97.30;;;;;;5017345;28;20427;-73
2021/12/10 07:10:18;;;;;;;6.30;4.70;;;5.30;97.30;;;;;;5017146;28;20450;-73
2021/12/10 07:12:47;;;;;;;8.33;3.77;;;5.20;97.50;;;;;;5023097;28;20497;-70
2021/12/10 07:15:16;;;;;;;12.63;4.60;;;5.20;97.70;;;;;;5021161;28;20477;-70
2021/12/10 07:17:46;;;;;;;6.97;4.23;;;5.20;97.60;;;;;;5017819;28;20443;-70
2021/12/10 07:20:14;;;;;;;10.93;4.50;;;5.30;97.60;;;;;;5021860;28;20436;-70
2021/12/10 07:22:41;;;;;;;5.30;3.93;;;5.30;97.30;;;;;;5017115;28;20423;-70
2021/12/10 07:25:09;;;;;;;6.70;4.13;;;5.30;97.30;;;;;;5017053;28;20487;-70
2021/12/10 07:27:36;;;;;;;11.73;5.03;;;5.30;96.90;;;;;;5017256;28;20446;-70
2021/12/10 07:30:05;;;;;;;5.27;3.80;;;5.30;96.90;;;;;;5017115;28;20454;-70
2021/12/10 07:32:32;;;;;;;9.20;4.10;;;5.30;96.90;;;;;;5016727;28;20790;-70
2021/12/10 07:34:59;;;;;;;10.60;4.40;;;5.30;97.10;;;;;;5016979;28;20490;-70
2021/12/10 07:37:25;;;;;;;8.63;3.90;;;5.30;97.20;;;;;;5016996;28;20450;-70
2021/12/10 07:39:52;;;;;;;6.60;3.30;;;5.30;97.30;;;;;;5016810;28;20442;-70
2021/12/10 07:42:19;;;;;;;6.27;3.90;;;5.30;97.10;;;;;;5016766;28;20485;-70
2021/12/10 07:44:46;;;;;;;7.23;3.43;;;5.30;97.00;;;;;;5016748;28;20483;-70
2021/12/10 07:47:15;;;;;;;13.77;4.13;;;5.40;97.10;;;;;;5016828;28;20451;-70
2021/12/10 07:49:43;;;;;;;7.03;3.63;;;5.30;97.20;;;;;;5016776;28;20443;-70
2021/12/10 07:52:16;;;;;;;9.70;3.93;;;5.30;97.20;;;;;;5016685;28;20458;-70
2021/12/10 07:54:44;;;;;;;12.90;4.60;;;5.30;97.10;;;;;;5016666;28;20822;-70
2021/12/10 07:57:11;;;;;;;5.90;4.00;;;5.30;97.10;;;;;;5016714;28;20513;-70
2021/12/10 07:59:38;;;;;;;6.83;2.70;;;5.30;97.10;;;;;;5016594;28;20459;-70
2021/12/10 08:02:06;;;;;;;7.00;3.40;;;5.40;97.10;;;;;;5016414;28;20443;-70
2021/12/10 08:04:34;;;;;;;6.50;2.93;;;5.30;97.10;;;;;;5016119;28;20467;-70
2021/12/10 08:07:01;;;;;;;8.50;3.30;;;5.30;97.20;;;;;;5016496;28;20459;-70
2021/12/10 08:09:28;;;;;;;8.53;3.50;;;5.30;97.20;;;;;;5016109;28;20948;-70
2021/12/10 08:11:55;;;;;;;9.80;3.13;;;5.40;97.10;;;;;;5016417;28;20439;-70
2021/12/10 08:14:21;;;;;;;5.23;2.47;;;5.50;97.00;;;;;;5015909;28;20467;-70
2021/12/10 08:16:48;;;;;;;7.83;2.87;;;5.50;97.00;;;;;;5015926;28;20451;-70
2021/12/10 08:19:15;;;;;;;4.83;2.80;;;5.50;96.60;;;;;;5015819;28;20860;-70
2021/12/10 08:21:44;;;;;;;5.40;2.83;;;5.50;96.60;;;;;;5016137;28;20452;-70
2021/12/10 08:24:11;;;;;;;7.47;2.77;;;5.50;96.50;;;;;;5016502;28;20471;-70
2021/12/10 08:26:38;;;;;;;5.17;3.10;;;5.60;96.50;;;;;;5016126;28;20521;-70
2021/12/10 08:29:06;;;;;;;8.63;3.47;;;5.60;96.40;;;;;;5016195;28;20423;-70
2021/12/10 08:31:33;;;;;;;7.30;3.10;;;5.60;96.30;;;;;;5016042;28;20451;-70
2021/12/10 08:34:00;;;;;;;6.53;4.00;;;5.70;96.00;;;;;;5015944;28;20464;-70
2021/12/10 08:36:28;;;;;;;8.23;3.63;;;5.70;96.10;;;;;;5016016;28;20448;-70
2021/12/10 08:38:56;;;;;;;7.57;3.07;;;5.70;96.20;;;;;;5015853;28;20526;-70
2021/12/10 08:41:27;;;;;;;6.70;4.00;;;5.70;96.30;;;;;;5015830;28;20432;-70
2021/12/10 08:43:56;;;;;;;6.47;2.93;;;5.80;96.30;;;;;;5015785;28;20470;-70
2021/12/10 08:46:24;;;;;;;5.90;3.27;;;5.80;96.20;;;;;;5015597;28;20969;-70
2021/12/10 08:48:51;;;;;;;5.23;2.53;;;5.90;96.20;;;;;;5015431;28;20443;-70
2021/12/10 08:51:21;;;;;;;7.00;2.93;;;6.00;96.00;;;;;;5015382;28;21023;-70
2021/12/10 08:53:48;;;;;;;9.27;2.60;;;6.00;95.90;;;;;;5015551;28;20467;-70
2021/12/10 08:56:17;;;;;;;10.83;3.00;;;6.00;95.80;;;;;;5015676;28;20443;-71
2021/12/10 08:58:43;;;;;;;5.53;2.70;;;6.10;95.80;;;;;;5015527;28;20452;-71
2021/12/10 09:01:15;;;;;;;5.43;2.93;;;6.10;95.50;;;;;;5015424;28;20451;-71
2021/12/10 09:03:44;;;;;;;9.27;2.57;;;6.10;95.60;;;;;;5015057;28;20503;-71
2021/12/10 09:06:12;;;;;;;8.30;2.80;;;6.10;95.70;;;;;;5014984;28;20479;-70
2021/12/10 09:08:39;;;;;;;11.93;4.10;;;6.20;95.60;;;;;;5014986;28;20937;-70
2021/12/10 09:11:08;;;;;;;5.83;3.10;;;6.20;95.50;;;;;;5015348;28;20436;-71
2021/12/10 09:13:36;;;;;;;7.13;2.70;;;6.20;95.20;;;;;;5015188;28;20467;-71
2021/12/10 09:16:12;;;;;;;5.83;2.93;;;6.20;95.10;;;;;;5015201;28;20796;-71
2021/12/10 09:18:40;;;;;;;5.90;3.33;;;6.20;95.20;;;;;;5015178;28;20434;-70
2021/12/10 09:21:08;;;;;;;8.30;3.33;;;6.20;94.70;;;;;;5015084;28;20451;-70
2021/12/10 09:23:35;;;;;;;11.13;3.27;;;6.20;94.60;;;;;;5014721;28;20977;-72
2021/12/10 09:26:06;;;;;;;6.13;3.00;;;6.20;94.80;;;;;;5014628;28;20483;-72
2021/12/10 09:28:33;;;;;;;13.27;3.40;;;6.30;94.80;;;;;;5014996;28;20443;-71
2021/12/10 09:31:02;;;;;;;11.13;3.40;;;6.30;94.70;;;;;;5013801;28;20941;-71
2021/12/10 09:33:29;;;;;;;8.03;3.53;;;6.30;94.40;;;;;;5014821;28;20463;-71
2021/12/10 09:35:56;;;;;;;4.80;2.60;;;6.40;94.40;;;;;;5014616;28;20450;-70
2021/12/10 09:38:24;;;;;;;7.70;3.03;;;6.40;94.00;;;;;;5014312;28;20443;-70
2021/12/10 09:40:54;;;;;;;8.10;2.90;;;6.40;94.10;;;;;;5014305;28;20455;-70
2021/12/10 09:43:21;;;;;;;5.60;3.77;;;6.40;94.20;;;;;;5014597;28;20456;-70
2021/12/10 09:45:53;;;;;;;8.30;3.13;;;6.50;94.10;;;;;;5014482;28;20548;-70
2021/12/10 09:48:23;;;;;;;7.47;3.67;;;6.40;93.70;;;;;;5015218;28;20792;-70
2021/12/10 09:50:54;;;;;;;7.23;4.30;;;6.50;93.50;;;;;;5014636;28;20447;-70
2021/12/10 09:53:21;;;;;;;10.73;4.20;;;6.50;93.30;;;;;;5014526;28;20522;-70
2021/12/10 09:55:49;;;;;;;6.00;4.13;;;6.50;92.90;;;;;;5014440;28;20455;-70
2021/12/10 09:58:17;;;;;;;5.77;4.30;;;6.50;93.20;;;;;;5014424;28;20451;-70
2021/12/10 10:00:49;;;;;;;7.80;3.87;;;6.50;93.20;;;;;;5014363;28;20447;-70
2021/12/10 10:03:19;;;;;;;7.30;3.87;;;6.60;93.30;;;;;;5013939;28;20462;-70
2021/12/10 10:05:47;;;;;;;7.30;4.23;;;6.60;93.50;;;;;;5014239;28;20485;-70
2021/12/10 10:08:17;;;;;;;6.50;3.80;;;6.60;93.60;;;;;;5014234;28;20478;-70
2021/12/10 10:10:50;;;;;;;9.93;4.50;;;6.60;93.40;;;;;;5013921;28;20439;-70
2021/12/10 10:13:18;;;;;;;7.13;4.30;;;6.70;93.30;;;;;;5014154;28;20438;-70
2021/12/10 10:15:47;;;;;;;8.53;4.07;;;6.70;93.40;;;;;;5014243;28;20432;-70
2021/12/10 10:18:14;;;;;;;7.87;4.20;;;6.70;93.40;;;;;;5014094;28;20443;-69
2021/12/10 10:20:44;;;;;;;7.17;3.83;;;6.80;93.30;;;;;;5014043;28;20477;-69
2021/12/10 10:23:13;;;;;;;6.03;4.20;;;6.80;93.40;;;;;;5013958;28;20452;-69
2021/12/10 10:25:42;;;;;;;8.47;4.57;;;6.80;93.30;;;;;;5013895;28;20482;-69
2021/12/10 10:28:11;;;;;;;8.13;4.10;;;6.70;93.20;;;;;;5013940;28;20448;-69
2021/12/10 10:30:40;;;;;;;6.17;4.10;;;6.60;93.30;;;;;;5014778;28;20444;-69
2021/12/10 10:33:09;;;;;;;7.23;4.73;;;6.70;93.40;;;;;;5013943;28;20428;-69
2021/12/10 10:35:39;;;;;;;6.90;4.10;;;6.70;93.30;;;;;;5013856;28;20443;-70
2021/12/10 10:38:09;;;;;;;8.43;4.40;;;6.70;92.60;;;;;;5013801;28;20451;-70
2021/12/10 10:40:40;;;;;;;7.83;4.20;;;6.70;92.50;;;;;;5014430;28;20439;-70
2021/12/10 10:43:08;;;;;;;7.63;3.63;;;6.70;92.20;;;;;;5013446;28;20798;-70
2021/12/10 10:45:37;;;;;;;5.47;3.90;;;6.80;91.50;;;;;;5013695;28;20467;-70
2021/12/10 10:48:06;;;;;;;7.50;3.30;;;6.80;91.60;;;;;;5013726;28;20454;-70
2021/12/10 10:50:40;;;;;;;3.93;3.20;;;6.80;91.00;;;;;;5013666;28;20451;-70
2021/12/10 10:53:10;;;;;;;4.70;3.00;;;6.80;90.60;;;;;;5013759;28;20434;-70
2021/12/10 10:55:43;;;;;;;6.13;3.17;;;6.80;90.00;;;;;;5013658;28;20439;-69
2021/12/10 10:58:13;;;;;;;5.93;2.90;;;6.90;90.10;;;;;;5013728;28;20527;-69
2021/12/10 11:00:50;;;;;;;6.17;3.67;;;6.90;90.00;;;;;;5013735;28;20435;-69
2021/12/10 11:03:21;;;;;;;6.87;3.20;;;6.90;89.30;;;;;;5013291;28;20557;-70
2021/12/10 11:05:50;;;;;;;7.67;3.77;;;6.90;88.60;;;;;;5013479;28;20467;-70
2021/12/10 11:08:29;;;;;;;6.23;3.20;;;7.00;89.40;;;;;;5013579;28;20436;-70
2021/12/10 11:11:07;;;;;;;6.13;2.80;;;7.10;90.20;;;;;;5013244;28;20439;-70
2021/12/10 11:13:34;;;;;;;6.63;2.90;;;7.10;87.80;;;;;;5013411;28;20474;-70
2021/12/10 11:16:06;;;;;;;4.87;2.40;;;7.10;87.30;;;;;;5013434;28;20439;-70
2021/12/10 11:18:42;;;;;;;5.07;2.60;;;7.10;87.40;;;;;;5013471;28;20478;-70
2021/12/10 11:21:10;;;;;;;11.07;3.60;;;7.10;86.50;;;;;;5013458;28;20432;-70
2021/12/10 11:23:39;;;;;;;5.40;3.17;;;7.10;87.20;;;;;;5013441;28;20550;-69
2021/12/10 11:26:08;;;;;;;6.03;3.20;;;7.00;87.70;;;;;;5013436;28;20478;-69
2021/12/10 11:28:37;;;;;;;4.67;2.90;;;7.00;88.40;;;;;;5013609;28;20428;-69
2021/12/10 11:31:07;;;;;;;5.50;2.60;;;7.00;86.80;;;;;;5013326;28;20443;-69
2021/12/10 11:33:39;;;;;;;11.70;2.70;;;7.00;86.60;;;;;;5014257;28;20468;-69
2021/12/10 11:36:09;;;;;;;5.97;3.37;;;7.00;86.30;;;;;;5012935;28;20424;-69
2021/12/10 11:38:37;;;;;;;5.53;3.00;;;7.00;87.90;;;;;;5013219;28;20470;-69
2021/12/10 11:41:08;;;;;;;4.60;3.10;;;7.00;88.10;;;;;;5013166;28;20451;-69
2021/12/10 11:43:52;;;;;;;4.87;3.33;;;7.10;88.30;;;;;;5013188;28;20467;-70
2021/12/10 11:46:32;;;;;;;6.20;3.10;;;7.10;88.20;;;;;;5013158;28;20467;-69
2021/12/10 11:49:06;;;;;;;5.07;3.17;;;7.20;87.00;;;;;;5013257;28;20850;-69
2021/12/10 11:51:36;;;;;;;7.90;3.87;;;7.10;86.20;;;;;;5013168;28;20432;-69
2021/12/10 11:54:05;;;;;;;4.87;3.23;;;7.20;87.40;;;;;;5015461;28;20494;-69
2021/12/10 11:56:37;;;;;;;7.50;3.53;;;7.20;88.40;;;;;;5016667;28;20443;-69
2021/12/10 11:59:11;;;;;;;6.80;3.60;;;7.30;88.80;;;;;;5016737;28;20852;-69
2021/12/10 12:01:49;;;;;;;6.70;3.57;;;7.20;86.50;;;;;;5017375;28;20435;-69
2021/12/10 12:04:18;;;;;;;10.90;3.20;;;7.30;86.90;;;;;;5016097;28;20478;-69
2021/12/10 12:06:48;;;;;;;5.90;3.40;;;7.20;85.60;;;;;;5016434;28;20482;-69
2021/12/10 12:09:30;;;;;;;7.80;3.20;;;7.20;86.80;;;;;;5017238;28;20490;-69
2021/12/10 12:12:14;;;;;;;6.40;3.20;;;7.20;86.50;;;;;;5016446;28;20470;-70
2021/12/10 12:14:50;;;;;;;4.50;2.30;;;7.20;85.90;;;;;;5015914;28;20810;-69
2021/12/10 12:17:36;;;;;;;3.60;1.73;;;7.10;85.00;;;;;;5016309;28;20434;-69
2021/12/10 12:20:10;;;;;;;3.50;2.43;;;7.00;86.50;;;;;;5016236;28;20439;-69
2021/12/10 12:25:27;;;;;;;4.37;2.60;;;6.90;88.30;;;;;;5016178;28;20441;-70
2021/12/10 12:28:07;;;;;;;6.40;2.87;;;6.70;88.30;;;;;;5016020;28;20479;-70
2021/12/10 12:30:34;;;;;;;5.87;3.13;;;6.60;90.00;;;;;;5016007;28;20435;-70
2021/12/10 12:33:01;;;;;;;8.93;4.10;;;6.60;90.30;;;;;;5015586;28;20792;-70
2021/12/10 12:35:31;;;;;;;6.87;3.40;;;6.60;90.90;;;;;;5015490;28;20994;-70
2021/12/10 12:38:15;;;;;;;10.73;3.90;;;6.70;91.30;;;;;;5015649;28;20428;-70
2021/12/10 12:40:43;;;;;;;7.13;3.27;;;6.70;91.60;;;;;;5015863;28;20858;-70
2021/12/10 12:43:12;;;;;;;5.60;3.63;;;6.80;91.40;;;;;;5015820;28;20432;-71
2021/12/10 12:45:40;;;;;;;8.30;3.73;;;6.80;91.00;;;;;;5015739;28;20447;-70
2021/12/10 12:48:11;;;;;;;6.87;3.50;;;6.80;91.50;;;;;;5015627;28;20475;-70
2021/12/10 12:50:41;;;;;;;8.13;3.90;;;6.80;91.90;;;;;;5015400;28;20972;-70
2021/12/10 12:53:12;;;;;;;9.80;3.57;;;6.90;91.50;;;;;;5015672;28;20427;-70
2021/12/10 12:55:44;;;;;;;7.63;3.60;;;6.80;90.40;;;;;;5015589;28;20463;-70
2021/12/10 12:58:24;;;;;;;4.00;3.40;;;6.80;90.60;;;;;;5015206;28;20926;-70
2021/12/10 13:00:57;;;;;;;7.37;4.53;;;6.70;91.40;;;;;;5015152;28;20905;-70
2021/12/10 13:03:30;;;;;;;11.30;4.60;;;6.70;91.80;;;;;;5015186;28;20838;-70
2021/12/10 13:06:01;;;;;;;8.23;4.17;;;6.70;91.40;;;;;;5014221;28;20523;-70
2021/12/10 13:08:32;;;;;;;10.40;4.50;;;6.70;91.80;;;;;;5015251;28;20527;-70
2021/12/10 13:11:11;;;;;;;7.67;4.40;;;6.70;92.10;;;;;;5015326;28;20438;-70
2021/12/10 13:13:44;;;;;;;7.27;4.40;;;6.70;92.00;;;;;;5015101;28;20503;-71
2021/12/10 13:16:12;;;;;;;4.47;4.03;;;6.70;91.90;;;;;;5015120;28;20885;-71
2021/12/10 13:18:41;;;;;;;5.20;3.93;;;6.70;92.20;;;;;;5015022;28;20453;-71